Route Details

Aircraft Information
Group: European Fleet
Types: A30F, B738
Route Data
Distance: 1315nm
Duration: 0h 00m
Origin METAR: LTAI 260250Z 35004KT CAVOK 18/12 Q1008 NOSIG RMK RWY18C 34004KT RWY36R 35005KT RWY18L VRB02KT
Dest. METAR: EDDK 260320Z AUTO 14004KT CAVOK 10/10 Q1017 NOSIG
Freight Data
(for May 26, 2024)
Load Factor:
47%
Manifested Cargo: 29,098lbs
Financial History
Total Freight: 149,347lbs
Average Load: 0lbs/flt
Fuel Used: 59,940lbs
Avg. Fuel Used: 0lbs/flt
Fuel Expense: $22,178
Avg. Fuel Expense: $0
Avg. Fuel Cost: $0/lbs
Total Gross Income: $685,503
Pilot Pay: $538
Total Expenses: $135,687
Total Revenue: $524,673
Average Revenue: $0

Capitol Logistics 126




LTAI
Antalya International Airport
Antalya, TR
EDDK
Cologne Bonn Airport
Cologne, DE